地図

経路データ

SID SEASON NUMBER BASIN SUBBASIN NAME ISO_TIME NATURE LAT LON WMO_WIND WMO_PRES WMO_AGENCY TRACK_TYPE DIST2LAND LANDFALL IFLAG USA_AGENCY USA_ATCF_ID USA_LAT USA_LON USA_RECORD USA_STATUS USA_WIND USA_PRES USA_SSHS USA_R34_NE USA_R34_SE USA_R34_SW USA_R34_NW USA_R50_NE USA_R50_SE USA_R50_SW USA_R50_NW USA_R64_NE USA_R64_SE USA_R64_SW USA_R64_NW USA_POCI USA_ROCI USA_RMW USA_EYE TOKYO_LAT TOKYO_LON TOKYO_GRADE TOKYO_WIND TOKYO_PRES TOKYO_R50_DIR TOKYO_R50_LONG TOKYO_R50_SHORT TOKYO_R30_DIR TOKYO_R30_LONG TOKYO_R30_SHORT TOKYO_LAND CMA_LAT CMA_LON CMA_CAT CMA_WIND CMA_PRES HKO_LAT HKO_LON HKO_CAT HKO_WIND HKO_PRES NEWDELHI_LAT NEWDELHI_LON NEWDELHI_GRADE NEWDELHI_WIND NEWDELHI_PRES NEWDELHI_CI NEWDELHI_DP NEWDELHI_POCI REUNION_LAT REUNION_LON REUNION_TYPE REUNION_WIND REUNION_PRES REUNION_TNUM REUNION_CI REUNION_RMW REUNION_R34_NE REUNION_R34_SE REUNION_R34_SW REUNION_R34_NW REUNION_R50_NE REUNION_R50_SE REUNION_R50_SW REUNION_R50_NW REUNION_R64_NE REUNION_R64_SE REUNION_R64_SW REUNION_R64_NW BOM_LAT BOM_LON BOM_TYPE BOM_WIND BOM_PRES BOM_TNUM BOM_CI BOM_RMW BOM_R34_NE BOM_R34_SE BOM_R34_SW BOM_R34_NW BOM_R50_NE BOM_R50_SE BOM_R50_SW BOM_R50_NW BOM_R64_NE BOM_R64_SE BOM_R64_SW BOM_R64_NW BOM_ROCI BOM_POCI BOM_EYE BOM_POS_METHOD BOM_PRES_METHOD NADI_LAT NADI_LON NADI_CAT NADI_WIND NADI_PRES WELLINGTON_LAT WELLINGTON_LON WELLINGTON_WIND WELLINGTON_PRES DS824_LAT DS824_LON DS824_STAGE DS824_WIND DS824_PRES TD9636_LAT TD9636_LON TD9636_STAGE TD9636_WIND TD9636_PRES TD9635_LAT TD9635_LON TD9635_WIND TD9635_PRES TD9635_ROCI NEUMANN_LAT NEUMANN_LON NEUMANN_CLASS NEUMANN_WIND NEUMANN_PRES MLC_LAT MLC_LON MLC_CLASS MLC_WIND MLC_PRES USA_GUST BOM_GUST BOM_GUST_PER REUNION_GUST REUNION_GUST_PER USA_SEAHGT USA_SEARAD_NE USA_SEARAD_SE USA_SEARAD_SW USA_SEARAD_NW STORM_SPEED STORM_DIR
1858091S12048 1858 5 SI MM NOT_NAMED 1858-04-01 06:00:00 NR -12.3000 48.1000 reunion main 79 79 _____O________ -1 -12.3000 48.1000 99 9.90000 5 266
1858091S12048 1858 5 SI MM NOT_NAMED 1858-04-01 09:00:00 NR -12.3161 47.8378 main 110 110 _____P________ -1 -12.3161 47.8378 99 5 266
1858091S12048 1858 5 SI MM NOT_NAMED 1858-04-01 12:00:00 NR -12.3353 47.5709 main 132 132 _____P________ -1 -12.3353 47.5709 99 5 265
1858091S12048 1858 5 SI MM NOT_NAMED 1858-04-01 15:00:00 NR -12.3609 47.2944 main 154 154 _____P________ -1 -12.3609 47.2944 99 6 264
1858091S12048 1858 5 SI MM NOT_NAMED 1858-04-01 18:00:00 NR -12.3963 47.0036 main 172 172 _____P________ -1 -12.3963 47.0036 99 6 262
1858091S12048 1858 5 SI MM NOT_NAMED 1858-04-01 21:00:00 NR -12.4446 46.6937 main 194 186 _____P________ -1 -12.4446 46.6937 99 6 260
1858091S12048 1858 5 SI MM NOT_NAMED 1858-04-02 00:00:00 NR -12.5092 46.3597 main 210 210 _____P________ -1 -12.5092 46.3597 99 7 258
1858091S12048 1858 5 SI MM NOT_NAMED 1858-04-02 03:00:00 NR -12.5933 45.9968 main 239 239 _____P________ -1 -12.5933 45.9968 99 8 256
1858091S12048 1858 5 SI MM NOT_NAMED 1858-04-02 06:00:00 NR -12.7000 45.6000 reunion main 273 273 _____O________ -1 -12.7000 45.6000 99 9.90000 8 254
1858091S12048 1858 5 SI MM NOT_NAMED 1858-04-02 09:00:00 NR -12.8319 45.1669 main 309 309 _____P________ -1 -12.8319 45.1669 99 9 252
1858091S12048 1858 5 SI MM NOT_NAMED 1858-04-02 12:00:00 NR -12.9886 44.7050 main 337 325 _____P________ -1 -12.9886 44.7050 99 10 250
1858091S12048 1858 5 SI MM NOT_NAMED 1858-04-02 15:00:00 NR -13.1691 44.2245 main 328 322 _____P________ -1 -13.1691 44.2245 99 10 248
1858091S12048 1858 5 SI MM NOT_NAMED 1858-04-02 18:00:00 NR -13.3726 43.7356 main 327 288 _____P________ -1 -13.3726 43.7356 99 10 246
1858091S12048 1858 5 SI MM NOT_NAMED 1858-04-02 21:00:00 NR -13.5981 43.2485 main 277 229 _____P________ -1 -13.5981 43.2485 99 11 243
1858091S12048 1858 5 SI MM NOT_NAMED 1858-04-03 00:00:00 NR -13.8450 42.7733 main 229 167 _____P________ -1 -13.8450 42.7733 99 10 240
1858091S12048 1858 5 SI MM NOT_NAMED 1858-04-03 03:00:00 NR -14.1125 42.3204 main 167 119 _____P________ -1 -14.1125 42.3204 99 10 237
1858091S12048 1858 5 SI MM NOT_NAMED 1858-04-03 06:00:00 NR -14.4000 41.9000 reunion main 119 75 _____O________ -1 -14.4000 41.9000 99 9.90000 10 232
1858091S12048 1858 5 SI MM NOT_NAMED 1858-04-03 09:00:00 NR -14.7250 41.5101 main 75 42 _____P________ -1 -14.7250 41.5101 99 10 227
1858091S12048 1858 5 SI MM NOT_NAMED 1858-04-03 12:00:00 NR -15.0767 41.1451 main 34 21 _____P________ -1 -15.0767 41.1451 99 10 223
1858091S12048 1858 5 SI MM NOT_NAMED 1858-04-03 15:00:00 NR -15.4455 40.8069 main 21 15 _____P________ -1 -15.4455 40.8069 99 10 220
1858091S12048 1858 5 SI MM NOT_NAMED 1858-04-03 18:00:00 NR -15.8214 40.4978 main 15 15 _____P________ -1 -15.8214 40.4978 99 9 217
1858091S12048 1858 5 SI MM NOT_NAMED 1858-04-03 21:00:00 NR -16.1946 40.2202 main 21 15 _____P________ -1 -16.1946 40.2202 99 9 214
1858091S12048 1858 5 SI MM NOT_NAMED 1858-04-04 00:00:00 NR -16.5554 39.9764 main 24 15 _____P________ -1 -16.5554 39.9764 99 8 212
1858091S12048 1858 5 SI MM NOT_NAMED 1858-04-04 03:00:00 NR -16.8938 39.7688 main 39 35 _____P________ -1 -16.8938 39.7688 99 7 209
1858091S12048 1858 5 SI MM NOT_NAMED 1858-04-04 06:00:00 NR -17.2000 39.6000 reunion main 54 54 _____O________ -1 -17.2000 39.6000 99 9.90000 6 207
1858091S12048 1858 5 SI MM NOT_NAMED 1858-04-04 09:00:00 NR -17.4667 39.4713 main 70 64 _____P________ -1 -17.4667 39.4713 99 5 203
1858091S12048 1858 5 SI MM NOT_NAMED 1858-04-04 12:00:00 NR -17.6966 39.3788 main 84 84 _____P________ -1 -17.6966 39.3788 99 5 199
1858091S12048 1858 5 SI MM NOT_NAMED 1858-04-04 15:00:00 NR -17.8951 39.3177 main 102 102 _____P________ -1 -17.8951 39.3177 99 4 194
1858091S12048 1858 5 SI MM NOT_NAMED 1858-04-04 18:00:00 NR -18.0675 39.2826 main 124 124 _____P________ -1 -18.0675 39.2826 99 3 187
1858091S12048 1858 5 SI MM NOT_NAMED 1858-04-04 21:00:00 NR -18.2189 39.2686 main 135 135 _____P________ -1 -18.2189 39.2686 99 3 184
1858091S12048 1858 5 SI MM NOT_NAMED 1858-04-05 00:00:00 NR -18.3546 39.2703 main 158 158 _____P________ -1 -18.3546 39.2703 99 3 174
1858091S12048 1858 5 SI MM NOT_NAMED 1858-04-05 03:00:00 NR -18.4799 39.2825 main 169 169 _____P________ -1 -18.4799 39.2825 99 2 173
1858091S12048 1858 5 SI MM NOT_NAMED 1858-04-05 06:00:00 NR -18.6000 39.3000 reunion main 179 _____O________ -1 -18.6000 39.3000 99 9.90000 2 0

IBTrACS Databaseについて

本データベースは、米国NOAAが公開する1842年以降の世界の熱帯低気圧のベストトラックデータアーカイブInternational Best Track Archive for Climate Stewardship (IBTrACS)を、ウェブで閲覧しやすい形式に変換したものです。

最終更新日:2021-12-01